プラハ の空港の天気 - METARとTAF

ルズィニエ国際空港(プラハ) ( LKPR / PRG ) - チェコ プラハ
飛行場実況気象(Metar)
観測時間07/18 14:00 CEST (07/18 12:00 UTC)
風向・風速北西 9m/s
視程10km以上
天気現象
全天の4割程度の雲 雲底高度 1490m
気温25℃
湿度44%
気圧1015hPa
METARLKPR 181200Z 32017KT 290V350 9999 SCT049 25/12 Q1015 NOSIG
過去の天気等 Google飛行場航空写真 Wunderground天気予報

過去48時間のMETAR

飛行場予報(TAF)
発表時間: 7/18 13:00 CEST (7/18 11:00 UTC)
予報対象時間: 18日14時 CEST ~ 19日20時 CEST
風向・風速北西 8m/s
視程10km以上
全天の4割程度の雲 雲底高度 1370m
18日14時 CEST ~ 18日21時 CEST に一時的に
風向・風速北 9m/s 瞬間風速 17m/s
18日14時 CEST ~ 18日19時 CEST に 確率 30% で一時的に
視程8000m
天気現象しゅう雨
全天の4割程度の塔状積雲 雲底高度 1370m
18日19時 CEST ~ 18日21時 CEST に徐々に
視程10km以上
なし
18日21時 CEST ~ 18日23時 CEST に徐々に
風向・風速西北西 4m/s
19日9時 CEST ~ 19日11時 CEST に徐々に
風向・風速北北西 6m/s
視程10km以上
全天の4割程度の雲 雲底高度 1220m
19日11時 CEST ~ 19日20時 CEST に一時的に
風向・風速北 7m/s 瞬間風速 13m/s
TAF LKPR 181100Z 1812/1918 31016KT 9999 SCT045
TEMPO 1812/1819 35018G34KT
PROB30 TEMPO 1812/1817 8000 SHRA SCT045TCU
BECMG 1817/1819 CAVOK
BECMG 1819/1821 29008KT
BECMG 1907/1909 33012KT 9999 SCT040
TEMPO 1909/1918 01014G26KT